Terminal Aerodrome Forecast
Issued by NWS Sterling, VA

Current Version | Previous Version | Graphics & Text | Print | Product List | Glossary On
Versions: 1 2 3 4 5 6 7 8 9 10 11 12 13 14 15 16 17
000
FTUS41 KLWX 240700 AAA
TAFMRB
TAF AMD
KMRB 240758Z 2408/2506 32009KT P6SM -RA BKN050 OVC080
     FM241000 31005KT 6SM BR SCT010 BKN100
     FM241300 VRB03KT P6SM BKN060 BKN100
     FM242300 01007KT P6SM SCT040=

USA.gov is the U.S. government's official web portal to all federal, state and local government web resources and services.